createdAt,value
2018-08-10T00:02:21.557Z,16.79
2018-08-10T00:04:50.423Z,16.76
2018-08-10T00:07:19.256Z,16.66
2018-08-10T00:09:48.107Z,16.67
2018-08-10T00:12:16.920Z,16.55
2018-08-10T00:14:45.782Z,16.44
2018-08-10T00:17:14.702Z,16.51
2018-08-10T00:23:21.591Z,16.46
2018-08-10T00:25:50.492Z,16.54
2018-08-10T00:28:19.369Z,16.56
2018-08-10T00:30:48.259Z,16.44
2018-08-10T00:33:17.090Z,16.48
2018-08-10T00:35:45.953Z,16.48
2018-08-10T00:38:14.827Z,16.53
2018-08-10T00:40:43.685Z,16.52
2018-08-10T00:43:20.000Z,16.52
2018-08-10T00:45:48.875Z,16.51
2018-08-10T00:48:17.757Z,16.50
2018-08-10T00:50:46.586Z,16.52
2018-08-10T00:53:15.425Z,16.49
2018-08-10T00:55:45.496Z,16.35
2018-08-10T00:58:14.350Z,16.33
2018-08-10T01:00:43.239Z,16.49
2018-08-10T01:03:12.225Z,16.84
2018-08-10T01:05:41.070Z,16.49
2018-08-10T01:08:09.936Z,16.43
2018-08-10T01:10:38.807Z,16.52
2018-08-10T01:13:07.754Z,16.49
2018-08-10T01:15:36.578Z,16.46
2018-08-10T01:18:05.577Z,16.37
2018-08-10T01:20:34.453Z,16.54
2018-08-10T01:23:06.239Z,16.33
2018-08-10T01:25:35.123Z,16.31
2018-08-10T01:28:04.952Z,16.33
2018-08-10T01:30:34.832Z,16.38
2018-08-10T01:33:03.721Z,16.37
2018-08-10T01:35:32.819Z,16.66
2018-08-10T01:38:02.662Z,16.34
2018-08-10T01:40:31.533Z,16.26
2018-08-10T01:43:00.377Z,16.21
2018-08-10T01:45:29.199Z,16.18
2018-08-10T01:47:58.099Z,16.14
2018-08-10T01:50:26.978Z,16.16
2018-08-10T01:52:55.793Z,16.09
2018-08-10T01:55:24.665Z,16.05
2018-08-10T01:57:53.546Z,15.93
2018-08-10T02:00:22.433Z,15.94
2018-08-10T02:02:51.250Z,16.20
2018-08-10T02:05:20.112Z,15.88
2018-08-10T02:07:48.955Z,15.79
2018-08-10T02:10:20.691Z,15.85
2018-08-10T02:12:53.754Z,15.70
2018-08-10T02:15:22.631Z,15.67
2018-08-10T02:17:51.513Z,15.62
2018-08-10T02:20:21.732Z,15.60
2018-08-10T02:22:50.709Z,15.52
2018-08-10T02:25:20.825Z,15.47
2018-08-10T02:27:50.348Z,15.49
2018-08-10T02:30:20.553Z,15.49
2018-08-10T02:32:50.197Z,15.43
2018-08-10T02:35:19.031Z,15.74
2018-08-10T02:37:47.895Z,15.51
2018-08-10T02:40:18.915Z,15.49
2018-08-10T02:42:48.724Z,15.47
2018-08-10T02:45:17.899Z,15.47
2018-08-10T02:47:47.301Z,15.40
2018-08-10T02:50:16.162Z,15.29
2018-08-10T02:52:45.309Z,15.24
2018-08-10T02:55:14.601Z,15.25
2018-08-10T02:57:43.562Z,15.29
2018-08-10T03:00:17.095Z,15.29
2018-08-10T03:02:46.374Z,15.22
2018-08-10T03:05:15.254Z,15.22
2018-08-10T03:07:44.239Z,15.17
2018-08-10T03:10:13.806Z,15.17
2018-08-10T03:12:42.624Z,15.08
2018-08-10T03:15:13.084Z,15.05
2018-08-10T03:17:42.270Z,15.11
2018-08-10T03:20:11.485Z,15.05
2018-08-10T03:22:40.692Z,14.90
2018-08-10T03:25:10.671Z,14.91
2018-08-10T03:27:39.581Z,14.83
2018-08-10T03:30:09.516Z,14.85
2018-08-10T03:32:38.731Z,15.18
2018-08-10T03:35:07.597Z,14.94
2018-08-10T03:37:37.025Z,14.94
2018-08-10T03:40:08.234Z,14.86
2018-08-10T03:42:37.071Z,14.73
2018-08-10T03:45:05.958Z,14.78
2018-08-10T03:47:34.854Z,14.69
2018-08-10T03:50:04.053Z,14.69
2018-08-10T03:52:32.886Z,15.04
2018-08-10T03:55:01.757Z,14.83
2018-08-10T03:57:30.584Z,14.81
2018-08-10T03:59:59.433Z,14.71
2018-08-10T04:02:28.283Z,14.61
2018-08-10T04:04:57.129Z,14.67
2018-08-10T04:07:25.973Z,14.60
2018-08-10T04:09:54.822Z,14.59
2018-08-10T04:12:23.798Z,14.59
2018-08-10T04:14:52.660Z,14.54
2018-08-10T04:17:24.054Z,14.53
2018-08-10T04:19:53.909Z,14.62
2018-08-10T04:22:23.793Z,14.62
2018-08-10T04:24:52.803Z,14.58
2018-08-10T04:27:21.971Z,14.59
2018-08-10T04:29:50.977Z,14.63
2018-08-10T04:32:20.176Z,14.66
2018-08-10T04:34:49.081Z,14.69
2018-08-10T04:37:18.259Z,14.66
2018-08-10T04:39:47.118Z,14.63
2018-08-10T04:42:16.040Z,14.69
2018-08-10T04:44:44.900Z,14.71
2018-08-10T04:47:13.767Z,14.76
2018-08-10T04:49:42.585Z,14.78
2018-08-10T04:52:11.443Z,14.75
2018-08-10T04:54:41.789Z,14.78
2018-08-10T04:57:10.675Z,14.84
2018-08-10T04:59:39.527Z,14.88
2018-08-10T05:02:08.627Z,14.84
2018-08-10T05:04:37.497Z,14.81
2018-08-10T05:07:06.372Z,14.80
2018-08-10T05:09:35.264Z,14.92
2018-08-10T05:12:04.153Z,14.91
2018-08-10T05:14:33.004Z,14.87
2018-08-10T05:17:02.036Z,14.83
2018-08-10T05:19:30.900Z,15.16
2018-08-10T05:21:59.788Z,14.86
2018-08-10T05:24:28.602Z,14.88
2018-08-10T05:26:57.485Z,15.29
2018-08-10T05:29:26.359Z,14.94
2018-08-10T05:31:55.182Z,14.94
2018-08-10T05:34:24.055Z,15.12
2018-08-10T05:36:52.922Z,15.06
2018-08-10T05:39:21.847Z,15.05
2018-08-10T05:41:50.710Z,15.05
2018-08-10T05:44:19.581Z,14.98
2018-08-10T05:46:48.504Z,15.17
2018-08-10T05:49:17.301Z,15.20
2018-08-10T05:51:46.140Z,15.07
2018-08-10T05:54:15.004Z,15.10
2018-08-10T05:56:43.846Z,15.24
2018-08-10T05:59:12.735Z,15.12
2018-08-10T06:01:41.654Z,15.27
2018-08-10T06:04:10.624Z,15.62
2018-08-10T06:06:39.407Z,15.35
2018-08-10T06:09:13.595Z,15.76
2018-08-10T06:11:43.296Z,16.05
2018-08-10T06:14:12.889Z,15.98
2018-08-10T06:16:41.743Z,16.10
2018-08-10T06:19:10.580Z,15.91
2018-08-10T06:21:39.752Z,16.12
2018-08-10T06:24:08.524Z,16.21
2018-08-10T06:26:37.408Z,16.19
2018-08-10T06:29:06.281Z,16.62
2018-08-10T06:31:35.175Z,16.59
2018-08-10T06:34:04.118Z,16.77
2018-08-10T06:36:32.814Z,17.80
2018-08-10T06:39:01.697Z,17.49
2018-08-10T06:41:30.520Z,17.57
2018-08-10T06:43:59.582Z,17.70
2018-08-10T06:46:29.974Z,17.30
2018-08-10T06:48:58.829Z,17.56
2018-08-10T06:51:27.687Z,17.55
2018-08-10T06:53:56.687Z,18.05
2018-08-10T06:56:25.571Z,18.95
2018-08-10T06:58:55.425Z,18.56
2018-08-10T07:01:24.230Z,18.48
2018-08-10T07:03:53.028Z,18.35
2018-08-10T07:06:21.983Z,18.05
2018-08-10T07:08:50.873Z,17.19
2018-08-10T07:11:19.711Z,17.00
2018-08-10T07:13:48.567Z,17.27
2018-08-10T07:16:17.425Z,17.59
2018-08-10T07:18:46.283Z,17.72
2018-08-10T07:21:15.201Z,17.89
2018-08-10T07:23:44.230Z,17.93
2018-08-10T07:27:19.956Z,17.56
2018-08-10T07:29:48.828Z,17.22
2018-08-10T07:32:17.720Z,17.22
2018-08-10T07:34:46.562Z,18.48
2018-08-10T07:37:15.400Z,20.32
2018-08-10T07:39:44.275Z,20.12
2018-08-10T07:42:13.117Z,21.49
2018-08-10T07:44:41.975Z,22.66
2018-08-10T07:47:10.903Z,23.34
2018-08-10T07:49:42.595Z,23.45
2018-08-10T07:52:11.493Z,24.18
2018-08-10T07:54:40.403Z,25.88
2018-08-10T07:57:12.256Z,26.29
2018-08-10T07:59:41.092Z,27.53
2018-08-10T08:02:10.341Z,26.07
2018-08-10T08:04:39.242Z,26.71
2018-08-10T08:07:08.532Z,26.87
2018-08-10T08:09:37.318Z,28.36
2018-08-10T08:12:06.167Z,28.53
2018-08-10T08:14:34.999Z,29.36
2018-08-10T08:17:03.877Z,29.55
2018-08-10T08:19:32.797Z,29.44
2018-08-10T08:22:05.390Z,30.18
2018-08-10T08:24:34.247Z,30.00
2018-08-10T08:27:03.109Z,29.65
2018-08-10T08:29:32.024Z,29.95
2018-08-10T08:32:01.178Z,29.46
2018-08-10T08:34:30.038Z,27.04
2018-08-10T08:36:59.169Z,28.30
2018-08-10T08:40:15.907Z,28.38
2018-08-10T08:42:45.847Z,28.52
2018-08-10T08:46:09.673Z,29.91
2018-08-10T08:49:04.226Z,30.89
2018-08-10T08:51:33.136Z,30.15
2018-08-10T08:54:58.924Z,29.71
2018-08-10T08:57:27.759Z,29.81
2018-08-10T08:59:56.601Z,29.65
2018-08-10T09:02:25.424Z,29.65
2018-08-10T09:05:08.026Z,30.30
2018-08-10T09:07:37.054Z,30.64
2018-08-10T09:10:14.155Z,30.93
2018-08-10T09:12:42.985Z,29.63
2018-08-10T09:15:13.545Z,29.65
2018-08-10T09:17:42.645Z,30.25
2018-08-10T09:20:11.803Z,30.41
2018-08-10T09:22:40.606Z,31.53
2018-08-10T09:25:16.779Z,30.68
2018-08-10T09:27:45.633Z,30.31
2018-08-10T09:30:18.564Z,30.87
2018-08-10T09:32:47.525Z,30.94
2018-08-10T09:35:16.373Z,31.21
2018-08-10T09:37:45.213Z,30.34
2018-08-10T09:40:18.128Z,30.78
2018-08-10T09:42:47.242Z,30.34
2018-08-10T09:45:16.675Z,30.45
2018-08-10T09:47:46.651Z,30.64
2018-08-10T09:50:16.118Z,31.15
2018-08-10T09:53:01.761Z,30.08
2018-08-10T09:55:39.174Z,30.13
2018-08-10T09:58:18.722Z,30.02
2018-08-10T10:01:05.864Z,28.84
2018-08-10T10:03:34.744Z,28.58
2018-08-10T10:06:03.626Z,28.56
2018-08-10T10:08:32.505Z,27.60
2018-08-10T10:11:01.440Z,26.72
2018-08-10T10:13:30.410Z,26.72
2018-08-10T10:15:59.288Z,26.17
2018-08-10T10:18:28.120Z,27.07
2018-08-10T10:20:56.987Z,27.19
2018-08-10T10:23:25.842Z,28.25
2018-08-10T10:25:54.688Z,27.82
2018-08-10T10:28:23.600Z,30.28
2018-08-10T10:30:52.426Z,29.80
2018-08-10T10:33:21.541Z,29.03
2018-08-10T10:35:50.427Z,28.93
2018-08-10T10:38:19.325Z,26.54
2018-08-10T10:40:48.169Z,25.36
2018-08-10T10:43:17.027Z,24.93
2018-08-10T10:45:45.859Z,24.57
2018-08-10T10:48:14.695Z,23.97
2018-08-10T10:50:43.588Z,23.74
2018-08-10T10:53:12.439Z,23.11
2018-08-10T10:55:41.328Z,23.03
2018-08-10T10:58:16.347Z,23.09
2018-08-10T11:00:45.166Z,22.98
2018-08-10T11:03:14.106Z,22.72
2018-08-10T11:05:42.929Z,22.61
2018-08-10T11:08:11.809Z,22.35
2018-08-10T11:10:40.635Z,22.74
2018-08-10T11:13:09.501Z,22.16
2018-08-10T11:15:38.754Z,22.33
2018-08-10T11:18:07.698Z,23.13
2018-08-10T11:20:39.554Z,24.55
2018-08-10T11:23:08.407Z,25.23
2018-08-10T11:25:37.239Z,24.76
2018-08-10T11:28:06.324Z,24.42
2018-08-10T11:30:35.149Z,24.24
2018-08-10T11:33:03.999Z,25.57
2018-08-10T11:35:32.819Z,25.86
2018-08-10T11:38:01.679Z,25.78
2018-08-10T11:40:30.528Z,26.02
2018-08-10T11:42:59.388Z,27.10
2018-08-10T11:45:28.227Z,25.85
2018-08-10T11:47:57.068Z,24.92
2018-08-10T11:50:25.949Z,24.46
2018-08-10T11:52:54.808Z,23.53
2018-08-10T11:55:23.631Z,23.95
2018-08-10T11:57:52.491Z,23.58
2018-08-10T12:00:21.374Z,23.42
2018-08-10T12:02:50.227Z,23.23
2018-08-10T12:05:19.551Z,23.49
2018-08-10T12:07:48.387Z,24.36
2018-08-10T12:10:17.279Z,24.44
2018-08-10T12:12:46.195Z,24.55
2018-08-10T12:15:15.037Z,24.76
2018-08-10T12:17:43.897Z,24.93
2018-08-10T12:20:13.194Z,24.69
2018-08-10T12:22:42.508Z,24.28
2018-08-10T12:25:11.561Z,24.39
2018-08-10T12:27:40.442Z,24.47
2018-08-10T12:30:10.954Z,24.45
2018-08-10T12:32:39.881Z,24.59
2018-08-10T12:35:09.548Z,24.23
2018-08-10T12:37:38.450Z,24.08
2018-08-10T12:40:07.722Z,24.03
2018-08-10T12:42:36.560Z,23.87
2018-08-10T12:45:05.603Z,24.08
2018-08-10T12:47:52.006Z,24.18
2018-08-10T12:50:21.453Z,24.41
2018-08-10T12:52:50.154Z,24.38
2018-08-10T12:55:19.022Z,24.36
2018-08-10T12:57:47.894Z,24.58
2018-08-10T13:00:16.748Z,24.78
2018-08-10T13:02:45.848Z,24.78
2018-08-10T13:05:14.439Z,24.52
2018-08-10T13:07:43.284Z,24.25
2018-08-10T13:10:12.831Z,23.77
2018-08-10T13:12:41.685Z,23.40
2018-08-10T13:15:11.912Z,23.01
2018-08-10T13:17:40.753Z,22.53
2018-08-10T13:20:11.489Z,22.18
2018-08-10T13:22:40.317Z,21.98
2018-08-10T13:25:09.965Z,21.85
2018-08-10T13:27:38.804Z,21.71
2018-08-10T13:30:09.493Z,21.75
2018-08-10T13:32:38.325Z,22.22
2018-08-10T13:35:07.609Z,22.44
2018-08-10T13:37:36.473Z,22.75
2018-08-10T13:40:05.597Z,23.09
2018-08-10T13:42:34.475Z,23.46
2018-08-10T13:45:03.344Z,23.93
2018-08-10T13:47:32.210Z,23.83
2018-08-10T13:50:02.242Z,23.78
2018-08-10T13:52:30.905Z,23.73
2018-08-10T13:54:59.750Z,23.99
2018-08-10T13:57:28.604Z,24.24
2018-08-10T13:59:57.591Z,24.20
2018-08-10T14:02:26.487Z,24.07
2018-08-10T14:04:55.437Z,24.09
2018-08-10T14:07:24.278Z,24.11
2018-08-10T14:09:53.130Z,24.13
2018-08-10T14:12:25.028Z,24.28
2018-08-10T14:14:53.921Z,24.51
2018-08-10T14:17:22.784Z,24.38
2018-08-10T14:19:51.666Z,24.27
2018-08-10T14:22:20.532Z,23.94
2018-08-10T14:24:49.394Z,23.97
2018-08-10T14:27:18.278Z,24.47
2018-08-10T14:29:47.129Z,24.54
2018-08-10T14:32:15.989Z,24.11
2018-08-10T14:34:44.960Z,23.97
2018-08-10T14:37:13.899Z,23.98
2018-08-10T14:39:42.773Z,23.74
2018-08-10T14:42:11.654Z,23.32
2018-08-10T14:44:40.525Z,23.21
2018-08-10T14:47:09.490Z,23.28
2018-08-10T14:49:38.371Z,23.61
2018-08-10T14:52:07.261Z,23.93
2018-08-10T14:54:36.146Z,24.20
2018-08-10T14:57:05.046Z,24.05
2018-08-10T14:59:33.988Z,23.82
2018-08-10T15:02:02.932Z,23.77
2018-08-10T15:04:31.826Z,23.65
2018-08-10T15:07:00.688Z,23.60
2018-08-10T15:10:24.387Z,23.68
2018-08-10T15:12:53.782Z,23.70
2018-08-10T15:15:22.274Z,23.83
2018-08-10T15:17:51.145Z,23.61
2018-08-10T15:20:20.872Z,23.71
2018-08-10T15:22:49.778Z,23.64
2018-08-10T15:25:18.645Z,23.66
2018-08-10T15:27:47.493Z,23.65
2018-08-10T15:30:19.866Z,23.65
2018-08-10T15:32:49.003Z,23.53
2018-08-10T15:35:18.375Z,23.43
2018-08-10T15:37:47.481Z,23.53
2018-08-10T15:40:18.301Z,23.39
2018-08-10T15:42:47.703Z,23.63
2018-08-10T15:45:18.292Z,23.36
2018-08-10T15:47:48.303Z,23.28
2018-08-10T15:50:17.816Z,23.10
2018-08-10T15:52:47.424Z,22.93
2018-08-10T15:55:17.021Z,22.97
2018-08-10T15:57:46.446Z,23.15
2018-08-10T16:00:24.716Z,23.25
2018-08-10T16:02:54.458Z,23.12
2018-08-10T16:05:24.612Z,23.00
2018-08-10T16:07:54.389Z,23.12
2018-08-10T16:10:24.054Z,22.90
2018-08-10T16:12:55.139Z,22.87
2018-08-10T16:15:24.731Z,23.03
2018-08-10T16:17:54.640Z,23.21
2018-08-10T16:20:24.160Z,23.38
2018-08-10T16:22:53.895Z,23.50
2018-08-10T16:25:23.694Z,23.49
2018-08-10T16:27:54.355Z,23.44
2018-08-10T16:30:41.009Z,23.29
2018-08-10T16:33:09.969Z,23.07
2018-08-10T16:35:38.798Z,23.07
2018-08-10T16:38:07.709Z,23.19
2018-08-10T16:40:36.555Z,23.14
2018-08-10T16:43:05.418Z,23.00
2018-08-10T16:45:34.276Z,23.10
2018-08-10T16:48:03.128Z,23.06
2018-08-10T16:50:32.051Z,22.98
2018-08-10T16:53:18.488Z,23.15
2018-08-10T16:55:47.399Z,22.76
2018-08-10T16:58:16.297Z,22.53
2018-08-10T17:00:45.083Z,22.41
2018-08-10T17:03:13.982Z,22.31
2018-08-10T17:05:42.836Z,22.26
2018-08-10T17:08:11.662Z,22.11
2018-08-10T17:10:40.533Z,22.26
2018-08-10T17:13:09.438Z,22.29
2018-08-10T17:15:38.419Z,22.50
2018-08-10T17:18:07.262Z,22.85
2018-08-10T17:20:36.144Z,22.70
2018-08-10T17:23:04.963Z,22.56
2018-08-10T17:25:33.913Z,22.48
2018-08-10T17:28:02.767Z,22.49
2018-08-10T17:30:31.643Z,22.45
2018-08-10T17:33:00.463Z,22.33
2018-08-10T17:35:29.332Z,22.30
2018-08-10T17:37:58.263Z,22.14
2018-08-10T17:40:27.110Z,22.19
2018-08-10T17:42:55.959Z,22.26
2018-08-10T17:45:24.942Z,22.23
2018-08-10T17:47:53.798Z,22.18
2018-08-10T17:50:22.679Z,22.17
2018-08-10T17:52:54.992Z,22.42
2018-08-10T17:55:24.206Z,22.24
2018-08-10T17:57:53.086Z,22.23
2018-08-10T18:00:24.866Z,22.22
2018-08-10T18:02:53.873Z,22.13
2018-08-10T18:05:22.708Z,22.08
2018-08-10T18:07:51.564Z,22.09
2018-08-10T18:10:20.509Z,22.03
2018-08-10T18:12:49.463Z,22.01
2018-08-10T18:15:19.536Z,21.98
2018-08-10T18:17:48.755Z,21.95
2018-08-10T18:20:19.247Z,22.00
2018-08-10T18:22:49.398Z,21.99
2018-08-10T18:25:19.435Z,21.92
2018-08-10T18:27:48.341Z,21.87
2018-08-10T18:30:22.454Z,21.87
2018-08-10T18:32:51.279Z,21.90
2018-08-10T18:35:23.255Z,21.81
2018-08-10T18:37:52.778Z,21.80
2018-08-10T18:40:21.960Z,21.86
2018-08-10T18:42:51.083Z,21.81
2018-08-10T18:45:21.028Z,21.85
2018-08-10T18:47:49.882Z,21.72
2018-08-10T18:50:19.511Z,21.75
2018-08-10T18:52:48.380Z,21.81
2018-08-10T18:55:18.819Z,21.77
2018-08-10T18:57:47.755Z,21.74
2018-08-10T19:00:18.257Z,21.80
2018-08-10T19:02:47.320Z,21.73
2018-08-10T19:05:17.071Z,21.80
2018-08-10T19:07:46.612Z,21.64
2018-08-10T19:10:20.954Z,21.77
2018-08-10T19:12:49.866Z,21.73
2018-08-10T19:15:18.707Z,21.73
2018-08-10T19:17:47.648Z,21.50
2018-08-10T19:20:16.824Z,21.40
2018-08-10T19:22:46.233Z,21.26
2018-08-10T19:25:15.826Z,21.25
2018-08-10T19:27:44.574Z,21.23
2018-08-10T19:30:16.055Z,21.27
2018-08-10T19:32:46.008Z,21.25
2018-08-10T19:35:15.104Z,21.23
2018-08-10T19:37:43.988Z,21.26
2018-08-10T19:40:14.308Z,21.24
2018-08-10T19:42:43.185Z,21.29
2018-08-10T19:45:12.909Z,21.25
2018-08-10T19:47:41.835Z,21.22
2018-08-10T19:50:12.086Z,21.24
2018-08-10T19:52:40.920Z,21.11
2018-08-10T19:55:11.480Z,21.17
2018-08-10T19:57:40.588Z,21.15
2018-08-10T20:00:11.160Z,21.01
2018-08-10T20:02:40.451Z,20.88
2018-08-10T20:05:09.906Z,20.59
2018-08-10T20:07:38.945Z,20.48
2018-08-10T20:10:08.581Z,20.54
2018-08-10T20:12:37.740Z,20.50
2018-08-10T20:15:08.934Z,20.50
2018-08-10T20:17:37.800Z,20.46
2018-08-10T20:20:07.103Z,20.75
2018-08-10T20:22:35.960Z,20.51
2018-08-10T20:25:05.628Z,20.19
2018-08-10T20:27:34.923Z,20.14
2018-08-10T20:30:05.042Z,19.96
2018-08-10T20:32:33.861Z,20.31
2018-08-10T20:35:02.766Z,20.43
2018-08-10T20:37:31.581Z,20.14
2018-08-10T20:40:00.547Z,20.04
2018-08-10T20:42:29.402Z,20.01
2018-08-10T20:44:58.308Z,19.99
2018-08-10T20:47:27.283Z,19.90
2018-08-10T20:49:56.164Z,19.86
2018-08-10T20:52:25.004Z,19.85
2018-08-10T20:54:53.867Z,19.80
2018-08-10T20:57:22.874Z,19.81
2018-08-10T20:59:51.962Z,19.73
2018-08-10T21:02:20.867Z,19.71
2018-08-10T21:04:49.753Z,19.66
2018-08-10T21:07:18.649Z,19.56
2018-08-10T21:09:47.502Z,19.49
2018-08-10T21:12:16.378Z,19.40
2018-08-10T21:14:45.224Z,19.39
2018-08-10T21:17:14.122Z,19.20
2018-08-10T21:19:42.991Z,19.14
2018-08-10T21:22:12.089Z,19.04
2018-08-10T21:24:40.999Z,19.01
2018-08-10T21:27:10.008Z,18.94
2018-08-10T21:29:38.965Z,18.97
2018-08-10T21:32:08.143Z,18.93
2018-08-10T21:34:37.029Z,18.88
2018-08-10T21:37:06.054Z,18.86
2018-08-10T21:39:34.935Z,18.81
2018-08-10T21:42:03.954Z,18.84
2018-08-10T21:44:32.847Z,18.79
2018-08-10T21:47:01.717Z,18.71
2018-08-10T21:49:30.616Z,18.67
2018-08-10T21:51:59.484Z,19.07
2018-08-10T21:54:28.503Z,18.82
2018-08-10T21:56:57.356Z,18.85
2018-08-10T21:59:26.291Z,18.71
2018-08-10T22:01:55.171Z,18.73
2018-08-10T22:04:24.044Z,18.73
2018-08-10T22:06:52.908Z,18.71
2018-08-10T22:09:22.012Z,18.70
2018-08-10T22:11:50.869Z,18.66
2018-08-10T22:14:37.613Z,18.55
2018-08-10T22:17:24.645Z,18.31
2018-08-10T22:19:57.076Z,18.14
2018-08-10T22:22:26.348Z,17.78
2018-08-10T22:24:55.230Z,17.65
2018-08-10T22:27:24.091Z,17.46
2018-08-10T22:29:59.109Z,17.27
2018-08-10T22:32:27.977Z,17.05
2018-08-10T22:34:57.025Z,17.04
2018-08-10T22:37:25.897Z,16.95
2018-08-10T22:39:54.783Z,16.89
2018-08-10T22:42:23.676Z,16.83
2018-08-10T22:44:52.544Z,16.78
2018-08-10T22:47:21.410Z,16.86
2018-08-10T22:49:50.330Z,16.76
2018-08-10T22:52:22.317Z,16.71
2018-08-10T22:54:51.187Z,16.77
2018-08-10T22:57:20.089Z,16.74
2018-08-10T22:59:48.930Z,16.72
2018-08-10T23:02:17.849Z,16.64
2018-08-10T23:04:46.722Z,16.61
2018-08-10T23:07:15.574Z,16.62
2018-08-10T23:09:44.397Z,16.61
2018-08-10T23:12:13.257Z,16.63
2018-08-10T23:14:42.357Z,16.63
2018-08-10T23:17:11.117Z,16.64
2018-08-10T23:19:39.967Z,16.64
2018-08-10T23:22:08.822Z,16.64
2018-08-10T23:24:37.677Z,16.56
2018-08-10T23:27:06.542Z,16.58
2018-08-10T23:29:35.424Z,16.58
2018-08-10T23:32:04.256Z,16.52
2018-08-10T23:34:33.125Z,16.32
2018-08-10T23:37:02.194Z,16.26
2018-08-10T23:39:31.045Z,16.13
2018-08-10T23:41:59.890Z,15.89
2018-08-10T23:44:28.726Z,15.82
2018-08-10T23:46:57.551Z,15.72
2018-08-10T23:49:26.442Z,15.66
2018-08-10T23:51:55.322Z,15.67
2018-08-10T23:54:24.278Z,15.55
2018-08-10T23:56:53.143Z,15.51
2018-08-10T23:59:22.035Z,15.47
